Miguel Oliver — ECLX — position and weather

sailwx.info

Track history (hours):
 
Tides and Currents Weather Stations Pressure Air Temp Water Temp Dewpoint Dewpoint Depression Visibility Wind Speed Wind Dir Waves Ship Positions

Oceanographic research ship Miguel Oliver (Spain)

Ship's website: http://www.mapa.es/es/pesca/pags/miguel_web/index.htm

Last reported at 2016-Aug-24 11:33 UTC. Time now 2016-Aug-24 23:12 UTC.
Position N 43°37' W 002°04'.

Length 70 m; draft 4.8 m.

Type: Other ship. MMSI: 225322000.

Date/timePositionNaut miles runAvg speedWind from/ knotsBaromVisibWave heightAir tempDewpointWater temp
2016-Aug-24 11:33N 43°37' W 002°04'12 2.4
2016-Aug-24 06:33N 43°32' W 001°50'16 7.2
2016-Aug-24 04:22N 43°45' W 002°01'3 2.7
2016-Aug-24 03:23N 43°43' W 001°59'3 0.7
2016-Aug-23 23:33N 43°41' W 001°56'0 0.1
2016-Aug-23 22:09N 43°41' W 001°56'5 5.6
2016-Aug-23 21:19N 43°45' W 001°60'3 3.8
2016-Aug-23 20:33N 43°45' W 002°04'4 3.6
2016-Aug-23 19:33N 43°48' W 002°07'5 4.6
2016-Aug-23 18:33N 43°52' W 002°11'3 2.8
2016-Aug-23 17:33N 43°49' W 002°11'2 2.0
2016-Aug-23 16:33N 43°47' W 002°12'20 2.2
2016-Aug-23 07:33N 43°30' W 001°58'7 6.4
2016-Aug-23 06:33N 43°34' W 001°51'1 1.0
2016-Aug-23 05:33N 43°35' W 001°52'7 5.5
2016-Aug-23 04:21N 43°41' W 001°55'5 6.1
2016-Aug-23 03:33N 43°45' W 001°60'19 0.9
2016-Aug-22 07:25N 43°38' W 002°24'2010.3
2016-Aug-22 05:31N 43°39' W 002°51'6110.2
2016-Aug-21 23:32N 43°41' W 004°15'44 9.9
2016-Aug-21 19:04N 43°43' W 005°16'6 9.9
2016-Aug-21 18:31N 43°43' W 005°23'1010.1
2016-Aug-21 17:33N 43°44' W 005°37'1010.1
2016-Aug-21 16:33N 43°44' W 005°51'10 9.6
2016-Aug-21 15:34N 43°45' W 006°04'  
Track history (hours):
 
Tides and Currents Weather Stations Pressure Air Temp Water Temp Dewpoint Dewpoint Depression Visibility Wind Speed Wind Dir Waves Ship Positions

Oceanographic research ship Miguel Oliver (Spain)

Ship's website: http://www.mapa.es/es/pesca/pags/miguel_web/index.htm

Last reported at 2016-Aug-24 11:33 UTC. Time now 2016-Aug-24 23:12 UTC.
Position N 43°37' W 002°04'.

Length 70 m; draft 4.8 m.

Type: Other ship. MMSI: 225322000.

Date/timePositionNaut miles runAvg speedWind from/ knotsBaromVisibWave heightAir tempDewpointWater temp
2016-Aug-24 11:33N 43°37' W 002°04'12 2.4
2016-Aug-24 06:33N 43°32' W 001°50'16 7.2
2016-Aug-24 04:22N 43°45' W 002°01'3 2.7
2016-Aug-24 03:23N 43°43' W 001°59'3 0.7
2016-Aug-23 23:33N 43°41' W 001°56'0 0.1
2016-Aug-23 22:09N 43°41' W 001°56'5 5.6
2016-Aug-23 21:19N 43°45' W 001°60'3 3.8
2016-Aug-23 20:33N 43°45' W 002°04'4 3.6
2016-Aug-23 19:33N 43°48' W 002°07'5 4.6
2016-Aug-23 18:33N 43°52' W 002°11'3 2.8
2016-Aug-23 17:33N 43°49' W 002°11'2 2.0
2016-Aug-23 16:33N 43°47' W 002°12'20 2.2
2016-Aug-23 07:33N 43°30' W 001°58'7 6.4
2016-Aug-23 06:33N 43°34' W 001°51'1 1.0
2016-Aug-23 05:33N 43°35' W 001°52'7 5.5
2016-Aug-23 04:21N 43°41' W 001°55'5 6.1
2016-Aug-23 03:33N 43°45' W 001°60'19 0.9
2016-Aug-22 07:25N 43°38' W 002°24'2010.3
2016-Aug-22 05:31N 43°39' W 002°51'6110.2
2016-Aug-21 23:32N 43°41' W 004°15'44 9.9
2016-Aug-21 19:04N 43°43' W 005°16'6 9.9
2016-Aug-21 18:31N 43°43' W 005°23'1010.1
2016-Aug-21 17:33N 43°44' W 005°37'1010.1
2016-Aug-21 16:33N 43°44' W 005°51'10 9.6
2016-Aug-21 15:34N 43°45' W 006°04'  

Dump ship's entire track history